Time;durP1;ratioP1;P1;durP2;ratioP2;P2;SDS_P1;SDS_P2;PMS_P1;PMS_P2;Temp;Humidity;BMP_temperature;BMP_pressure;BME280_temperature;BME280_humidity;BME280_pressure;Samples;Min_cycle;Max_cycle;Signal;HPM_P1;HPM_P2
2022/08/22 00:01:10;;;;;;;6.10;2.35;;;18.20;74.60;;;;;;5008084;28;20053;-70
2022/08/22 00:03:54;;;;;;;6.30;2.13;;;18.10;75.50;;;;;;5020532;28;20051;-70
2022/08/22 00:06:37;;;;;;;6.97;2.15;;;18.10;75.00;;;;;;5014039;28;20054;-69
2022/08/22 00:09:40;;;;;;;4.78;2.53;;;18.10;75.10;;;;;;5024014;28;20736;-69
2022/08/22 00:12:42;;;;;;;5.20;1.98;;;18.10;75.10;;;;;;5027490;28;20487;-70
2022/08/22 00:15:32;;;;;;;5.22;1.90;;;18.10;75.40;;;;;;5005711;28;20050;-69
2022/08/22 00:18:36;;;;;;;8.35;2.28;;;18.00;75.00;;;;;;5030404;28;20072;-69
2022/08/22 00:21:18;;;;;;;4.57;2.15;;;18.10;74.50;;;;;;5023790;28;20049;-71
2022/08/22 00:24:26;;;;;;;6.95;2.20;;;18.00;75.90;;;;;;5015822;28;20049;-70
2022/08/22 00:27:03;;;;;;;6.20;2.20;;;17.90;76.10;;;;;;5013030;28;20049;-70
2022/08/22 00:29:46;;;;;;;5.07;2.22;;;17.90;75.10;;;;;;4996084;28;20045;-70
2022/08/22 00:32:31;;;;;;;7.60;2.40;;;17.80;74.50;;;;;;4994917;28;20046;-70
2022/08/22 00:35:23;;;;;;;4.85;2.10;;;17.70;74.80;;;;;;5007892;28;20152;-70
2022/08/22 00:38:12;;;;;;;3.40;1.90;;;17.60;74.70;;;;;;5007460;28;20053;-70
2022/08/22 00:41:02;;;;;;;4.03;2.20;;;17.50;75.30;;;;;;5004391;28;20045;-70
2022/08/22 00:43:40;;;;;;;5.43;2.40;;;17.50;75.70;;;;;;5014790;28;20854;-71
2022/08/22 00:46:38;;;;;;;6.78;1.88;;;17.50;75.70;;;;;;5017646;28;20061;-70
2022/08/22 00:49:22;;;;;;;;;;;17.50;75.50;;;;;;5027875;28;20095;-69
2022/08/22 00:52:15;;;;;;;4.30;2.15;;;17.50;75.30;;;;;;5013408;28;19952;-70
2022/08/22 00:54:42;;;;;;;6.95;2.03;;;17.60;74.60;;;;;;5012402;28;20168;-70
2022/08/22 00:57:30;;;;;;;4.15;1.77;;;17.50;75.20;;;;;;5052559;28;20560;-71
2022/08/22 01:00:16;;;;;;;4.63;2.15;;;17.50;75.70;;;;;;5012098;28;20204;-70
2022/08/22 01:03:16;;;;;;;5.28;1.95;;;17.50;75.90;;;;;;5036062;28;20053;-70
2022/08/22 01:06:07;;;;;;;7.05;2.30;;;17.50;75.90;;;;;;5040912;28;20597;-71
2022/08/22 01:08:41;;;;;;;5.47;2.10;;;17.40;75.90;;;;;;5021284;28;20498;-69
2022/08/22 01:11:54;;;;;;;4.95;1.83;;;17.50;75.80;;;;;;5053148;28;20132;-71
2022/08/22 01:14:52;;;;;;;4.28;1.95;;;17.50;76.00;;;;;;5026432;28;20050;-69
2022/08/22 01:17:55;;;;;;;3.83;2.10;;;17.50;75.60;;;;;;5005727;28;20049;-70
2022/08/22 01:20:29;;;;;;;8.05;2.45;;;17.40;75.30;;;;;;5041393;28;20050;-69
2022/08/22 01:23:19;;;;;;;4.57;2.00;;;17.30;75.70;;;;;;5015820;28;20046;-70
2022/08/22 01:25:57;;;;;;;7.20;2.40;;;17.30;75.80;;;;;;5025422;28;20057;-70
2022/08/22 01:29:00;;;;;;;4.80;2.42;;;17.20;76.00;;;;;;5043901;28;20060;-71
2022/08/22 01:31:47;;;;;;;5.03;2.10;;;17.20;76.30;;;;;;5028815;28;20091;-71
2022/08/22 01:34:52;;;;;;;4.72;2.20;;;17.20;76.40;;;;;;5010678;28;20503;-70
2022/08/22 01:37:58;;;;;;;6.88;2.35;;;17.10;76.70;;;;;;5023368;28;20050;-70
2022/08/22 01:40:49;;;;;;;5.85;2.13;;;17.00;76.30;;;;;;5029536;28;20049;-70
2022/08/22 01:43:47;;;;;;;5.47;2.45;;;16.90;76.90;;;;;;5019217;28;20095;-71
2022/08/22 01:46:31;;;;;;;9.95;2.60;;;16.90;77.20;;;;;;5004231;28;20042;-71
2022/08/22 01:49:31;;;;;;;7.20;2.47;;;16.80;77.80;;;;;;5019587;28;20046;-71
2022/08/22 01:52:38;;;;;;;5.45;2.30;;;16.80;77.30;;;;;;5016975;28;20042;-71
2022/08/22 01:55:19;;;;;;;5.97;2.40;;;16.80;77.90;;;;;;5021757;28;20053;-71
2022/08/22 01:57:56;;;;;;;7.72;2.25;;;16.70;78.40;;;;;;5018914;28;20136;-71
2022/08/22 02:00:24;;;;;;;6.50;2.50;;;16.70;78.50;;;;;;5013048;28;20149;-71
2022/08/22 02:03:13;;;;;;;;;;;16.80;78.50;;;;;;4989974;28;20060;-71
2022/08/22 02:05:50;;;;;;;6.70;2.30;;;16.70;78.50;;;;;;5011063;28;20324;-71
2022/08/22 02:08:45;;;;;;;8.52;2.53;;;16.50;79.90;;;;;;5019689;28;20041;-71
2022/08/22 02:11:35;;;;;;;6.93;2.67;;;16.50;80.00;;;;;;5016513;28;20042;-69
2022/08/22 02:14:22;;;;;;;5.72;2.53;;;16.60;80.60;;;;;;5006049;28;20053;-70
2022/08/22 02:16:55;;;;;;;7.00;2.28;;;16.70;80.80;;;;;;5024957;28;20046;-70
2022/08/22 02:19:53;;;;;;;6.55;2.50;;;16.70;79.70;;;;;;5001833;28;20078;-69
2022/08/22 02:22:40;;;;;;;6.43;2.20;;;16.60;80.40;;;;;;5043254;28;20112;-69
2022/08/22 02:25:23;;;;;;;8.32;3.05;;;16.60;80.50;;;;;;5000358;28;20438;-70
2022/08/22 02:27:59;;;;;;;5.90;2.58;;;16.60;80.30;;;;;;5022384;28;20132;-70
2022/08/22 02:30:53;;;;;;;5.55;2.30;;;16.70;80.20;;;;;;5002034;28;20049;-70
2022/08/22 02:33:44;;;;;;;4.53;2.05;;;16.70;79.60;;;;;;5004455;28;20519;-71
2022/08/22 02:36:49;;;;;;;3.97;2.20;;;16.70;79.40;;;;;;5022959;28;20073;-71
2022/08/22 02:39:42;;;;;;;4.45;2.38;;;16.70;79.80;;;;;;5013411;28;20053;-71
2022/08/22 02:42:42;;;;;;;4.88;1.98;;;16.50;80.30;;;;;;5015713;28;20593;-71
2022/08/22 02:45:38;;;;;;;4.97;2.47;;;16.40;80.50;;;;;;5013960;28;20073;-71
2022/08/22 02:48:31;;;;;;;6.05;2.10;;;16.30;81.00;;;;;;5015649;28;20046;-71
2022/08/22 02:51:09;;;;;;;5.22;2.10;;;16.40;80.80;;;;;;5058241;28;20041;-71
2022/08/22 02:53:53;;;;;;;4.75;2.45;;;16.40;80.00;;;;;;5028356;28;20731;-71
2022/08/22 02:56:41;;;;;;;5.45;2.05;;;16.50;79.50;;;;;;5044684;28;20095;-71
2022/08/22 02:59:26;;;;;;;6.40;2.28;;;16.30;79.70;;;;;;5022237;28;20056;-70
2022/08/22 03:01:54;;;;;;;5.97;2.53;;;16.20;81.00;;;;;;5024341;28;20049;-71
2022/08/22 03:04:32;;;;;;;4.68;2.10;;;16.10;80.90;;;;;;5035109;28;20100;-71
2022/08/22 03:07:07;;;;;;;;;;;16.20;80.40;;;;;;5018256;28;20744;-71
2022/08/22 03:10:12;;;;;;;4.50;2.30;;;16.10;80.00;;;;;;5014969;28;19912;-71
2022/08/22 03:12:57;;;;;;;6.35;2.30;;;16.10;79.80;;;;;;5015984;28;20042;-71
2022/08/22 03:15:35;;;;;;;5.05;2.25;;;16.30;79.40;;;;;;5020613;28;20046;-71
2022/08/22 03:18:20;;;;;;;;;;;16.30;79.30;;;;;;5018162;28;20373;-71
2022/08/22 03:20:58;;;;;;;7.18;2.40;;;16.20;79.20;;;;;;5045977;28;20291;-71
2022/08/22 03:23:35;;;;;;;5.60;2.40;;;16.20;78.90;;;;;;5015210;28;20053;-71
2022/08/22 03:26:26;;;;;;;5.40;2.30;;;16.20;78.80;;;;;;5021683;28;20132;-71
2022/08/22 03:29:00;;;;;;;5.20;2.30;;;16.20;79.10;;;;;;5023205;28;20176;-71
2022/08/22 03:31:28;;;;;;;7.43;2.60;;;16.00;79.60;;;;;;5032744;28;20041;-71
2022/08/22 03:34:14;;;;;;;6.30;2.35;;;16.10;79.60;;;;;;5004406;28;20072;-71
2022/08/22 03:37:00;;;;;;;4.95;2.58;;;16.10;80.20;;;;;;5014857;28;20658;-71
2022/08/22 03:39:46;;;;;;;9.45;2.67;;;15.90;80.60;;;;;;5016414;28;20108;-71
2022/08/22 03:42:18;;;;;;;9.35;2.70;;;15.80;80.90;;;;;;5010709;28;20050;-71
2022/08/22 03:45:02;;;;;;;5.93;2.50;;;15.90;80.70;;;;;;5017863;28;20137;-71
2022/08/22 03:48:01;;;;;;;6.07;2.80;;;15.80;81.40;;;;;;5024130;28;20662;-71
2022/08/22 03:50:38;;;;;;;5.78;2.22;;;15.70;82.00;;;;;;5010820;28;20220;-71
2022/08/22 03:53:50;;;;;;;5.83;2.33;;;15.80;81.70;;;;;;4999810;28;20041;-71
2022/08/22 03:56:48;;;;;;;4.28;2.25;;;15.90;80.90;;;;;;5006953;28;20053;-71
2022/08/22 03:59:34;;;;;;;;;;;15.80;81.10;;;;;;5023613;28;20045;-71
2022/08/22 04:02:19;;;;;;;6.20;2.40;;;15.80;81.20;;;;;;5014054;28;19917;-70
2022/08/22 04:05:26;;;;;;;4.78;2.20;;;15.80;80.70;;;;;;5004908;28;20107;-70
2022/08/22 04:08:07;;;;;;;6.10;2.60;;;15.70;80.90;;;;;;5009764;28;20152;-71
2022/08/22 04:11:00;;;;;;;4.97;2.33;;;15.70;81.00;;;;;;5028082;28;20046;-71
2022/08/22 04:13:45;;;;;;;4.10;2.40;;;15.70;81.60;;;;;;5025387;28;20044;-70
2022/08/22 04:16:49;;;;;;;4.97;2.58;;;15.70;80.80;;;;;;5027888;28;20050;-70
2022/08/22 04:19:48;;;;;;;5.13;2.40;;;15.70;81.00;;;;;;5024371;28;20052;-70
2022/08/22 04:22:39;;;;;;;5.53;2.28;;;15.70;81.20;;;;;;4996530;28;20050;-70
2022/08/22 04:25:24;;;;;;;6.30;2.70;;;15.70;81.10;;;;;;5005897;28;20227;-70
2022/08/22 04:28:10;;;;;;;6.90;2.35;;;15.70;81.70;;;;;;4997407;28;20053;-70
2022/08/22 04:30:49;;;;;;;6.50;2.42;;;15.60;81.70;;;;;;5016894;28;20499;-69
2022/08/22 04:33:27;;;;;;;6.18;2.88;;;15.60;81.30;;;;;;5029273;28;20774;-70
2022/08/22 04:36:16;;;;;;;4.70;2.38;;;15.50;81.90;;;;;;5048440;28;20080;-70
2022/08/22 04:39:02;;;;;;;6.40;2.70;;;15.50;81.70;;;;;;5020875;28;20150;-70
2022/08/22 04:41:51;;;;;;;8.50;3.08;;;15.50;81.90;;;;;;5018754;28;20050;-69
2022/08/22 04:44:48;;;;;;;8.30;2.55;;;15.60;82.40;;;;;;5048221;28;20049;-70
2022/08/22 04:47:19;;;;;;;7.85;2.45;;;15.60;82.00;;;;;;5033856;28;20042;-70
2022/08/22 04:50:12;;;;;;;5.70;2.70;;;15.60;82.40;;;;;;5024639;28;20462;-70
2022/08/22 04:52:47;;;;;;;5.03;2.30;;;15.50;83.00;;;;;;5005478;28;20794;-70
2022/08/22 04:55:41;;;;;;;5.95;2.72;;;15.50;82.90;;;;;;5030969;28;20531;-69
2022/08/22 04:58:34;;;;;;;5.05;2.35;;;15.50;82.90;;;;;;5021914;28;20041;-70
2022/08/22 05:01:24;;;;;;;5.57;2.55;;;15.50;83.10;;;;;;5030594;28;20145;-70
2022/08/22 05:04:00;;;;;;;5.68;2.22;;;15.60;82.90;;;;;;5014268;28;20136;-71
2022/08/22 05:06:29;;;;;;;5.80;2.40;;;15.70;82.50;;;;;;5027757;28;20046;-70
2022/08/22 05:08:59;;;;;;;6.05;2.60;;;15.70;82.60;;;;;;5008182;28;20553;-70
2022/08/22 05:11:26;;;;;;;8.52;3.33;;;15.70;82.00;;;;;;5015286;28;20050;-70
2022/08/22 05:13:56;;;;;;;4.65;2.53;;;15.70;82.40;;;;;;5000410;28;20049;-70
2022/08/22 05:16:37;;;;;;;4.85;2.40;;;15.70;82.60;;;;;;4984395;28;20107;-69
2022/08/22 05:19:16;;;;;;;5.93;2.60;;;15.80;82.40;;;;;;5005043;28;20494;-70
2022/08/22 05:21:45;;;;;;;7.90;2.50;;;15.80;82.60;;;;;;4999038;28;20053;-72
2022/08/22 05:24:16;;;;;;;4.85;2.47;;;15.80;82.10;;;;;;5017446;28;20499;-70
2022/08/22 05:26:45;;;;;;;5.40;2.50;;;15.80;82.20;;;;;;5017258;28;20476;-71
2022/08/22 05:29:12;;;;;;;5.20;2.53;;;15.80;82.30;;;;;;5021005;28;20050;-71
2022/08/22 05:31:55;;;;;;;7.25;2.75;;;15.90;82.20;;;;;;4994933;28;20187;-70
2022/08/22 05:34:35;;;;;;;8.73;2.70;;;15.80;82.10;;;;;;5023051;28;20052;-70
2022/08/22 05:37:20;;;;;;;4.25;2.75;;;15.80;82.30;;;;;;4979854;28;20045;-70
2022/08/22 05:39:52;;;;;;;5.05;2.42;;;15.80;82.00;;;;;;5057843;28;20045;-70
2022/08/22 05:42:31;;;;;;;5.20;2.65;;;15.90;82.50;;;;;;5007572;28;20038;-71
2022/08/22 05:44:57;;;;;;;6.45;2.78;;;16.00;82.70;;;;;;5000831;28;20056;-71
2022/08/22 05:47:43;;;;;;;4.50;2.60;;;16.00;82.50;;;;;;5012708;28;20045;-71
2022/08/22 05:50:27;;;;;;;5.72;2.80;;;16.10;82.50;;;;;;5015456;28;20048;-72
2022/08/22 05:53:25;;;;;;;6.47;2.90;;;16.20;82.20;;;;;;5026775;28;20037;-72
2022/08/22 05:56:01;;;;;;;4.65;3.28;;;16.30;81.70;;;;;;4999116;28;20049;-71
2022/08/22 05:58:43;;;;;;;7.05;3.30;;;16.20;81.70;;;;;;5000966;28;20050;-71
2022/08/22 06:01:37;;;;;;;7.55;3.00;;;16.30;81.30;;;;;;5018350;28;20616;-71
2022/08/22 06:04:22;;;;;;;7.93;3.08;;;16.30;81.10;;;;;;5025457;28;20071;-71
2022/08/22 06:07:06;;;;;;;9.13;3.47;;;16.30;80.90;;;;;;5032730;28;20061;-71
2022/08/22 06:09:47;;;;;;;5.22;2.88;;;16.30;81.00;;;;;;5024679;28;20115;-72
2022/08/22 06:12:33;;;;;;;5.78;2.80;;;16.40;81.00;;;;;;5021970;28;20061;-71
2022/08/22 06:15:04;;;;;;;10.15;3.60;;;16.50;81.30;;;;;;5016232;28;20076;-72
2022/08/22 06:17:35;;;;;;;4.85;3.08;;;16.50;81.00;;;;;;5023883;28;20045;-71
2022/08/22 06:20:05;;;;;;;8.32;3.42;;;16.60;80.60;;;;;;4996416;28;20049;-72
2022/08/22 06:22:37;;;;;;;8.70;3.50;;;16.70;80.40;;;;;;5011450;28;20077;-72
2022/08/22 06:25:25;;;;;;;7.20;2.88;;;16.70;80.30;;;;;;5045372;28;20050;-71
2022/08/22 06:27:52;;;;;;;;;;;16.70;80.70;;;;;;4996298;28;20140;-72
2022/08/22 06:30:19;;;;;;;7.63;3.25;;;16.80;80.40;;;;;;4993131;28;19917;-71
2022/08/22 06:32:51;;;;;;;6.68;3.00;;;16.80;79.80;;;;;;5017354;28;20200;-71
2022/08/22 06:35:28;;;;;;;6.30;3.28;;;16.90;79.50;;;;;;5016358;28;20132;-72
2022/08/22 06:37:57;;;;;;;6.22;3.47;;;17.00;79.50;;;;;;5016338;28;20045;-71
2022/08/22 06:40:24;;;;;;;9.55;3.75;;;17.00;79.90;;;;;;4995089;28;20100;-71
2022/08/22 06:42:52;;;;;;;5.80;3.15;;;17.10;79.70;;;;;;5026083;28;20073;-72
2022/08/22 06:45:29;;;;;;;6.43;3.00;;;17.20;79.30;;;;;;4995238;28;20045;-73
2022/08/22 06:48:04;;;;;;;9.10;3.23;;;17.20;78.90;;;;;;5000620;28;20050;-68
2022/08/22 06:50:35;;;;;;;11.13;3.67;;;17.20;78.40;;;;;;5003809;28;20042;-68
2022/08/22 06:53:11;;;;;;;5.13;2.90;;;17.30;78.00;;;;;;5022194;28;20041;-68
2022/08/22 06:55:39;;;;;;;7.65;3.70;;;17.30;77.90;;;;;;5010034;28;20136;-67
2022/08/22 06:58:15;;;;;;;7.43;3.20;;;17.40;78.10;;;;;;5001441;28;20087;-69
2022/08/22 07:00:42;;;;;;;10.82;3.90;;;17.50;78.10;;;;;;5032822;28;20112;-68
2022/08/22 07:03:32;;;;;;;8.25;3.42;;;17.50;78.50;;;;;;5001738;28;20148;-68
2022/08/22 07:05:59;;;;;;;9.13;3.58;;;17.60;78.70;;;;;;5014157;28;20057;-68
2022/08/22 07:08:27;;;;;;;11.23;3.33;;;17.60;79.10;;;;;;5007731;28;20804;-68
2022/08/22 07:11:04;;;;;;;;;;;17.80;79.20;;;;;;5017725;28;20046;-68
2022/08/22 07:13:31;;;;;;;10.60;3.50;;;17.80;79.70;;;;;;5019057;28;19974;-68
2022/08/22 07:16:01;;;;;;;7.22;2.90;;;17.90;79.40;;;;;;5044648;28;20046;-69
2022/08/22 07:18:28;;;;;;;5.38;2.78;;;18.00;78.90;;;;;;5017826;28;20127;-69
2022/08/22 07:20:58;;;;;;;9.30;3.28;;;18.00;78.40;;;;;;5020503;28;20407;-69
2022/08/22 07:23:43;;;;;;;7.53;3.25;;;18.10;78.50;;;;;;5002048;28;20046;-68
2022/08/22 07:26:30;;;;;;;6.70;2.55;;;18.20;78.20;;;;;;5008102;28;20091;-68
2022/08/22 07:29:12;;;;;;;5.13;2.63;;;18.20;78.10;;;;;;5007016;28;20122;-69
2022/08/22 07:31:57;;;;;;;7.55;3.35;;;18.30;77.60;;;;;;4998996;28;20091;-69
2022/08/22 07:34:39;;;;;;;7.78;2.53;;;18.40;77.50;;;;;;5023910;28;20041;-68
2022/08/22 07:37:25;;;;;;;7.45;2.50;;;18.40;76.10;;;;;;5018073;28;20128;-68
2022/08/22 07:40:34;;;;;;;3.90;2.10;;;18.50;75.50;;;;;;5015605;28;20628;-69
2022/08/22 07:43:43;;;;;;;6.18;2.42;;;18.60;74.30;;;;;;5022161;28;20516;-68
2022/08/22 07:46:34;;;;;;;4.82;2.58;;;18.80;74.60;;;;;;5035397;28;20510;-69
2022/08/22 07:49:20;;;;;;;5.63;2.50;;;18.80;74.40;;;;;;5007151;28;20534;-68
2022/08/22 07:51:56;;;;;;;9.77;2.60;;;18.90;73.80;;;;;;5021182;28;20058;-68
2022/08/22 07:54:29;;;;;;;7.15;2.45;;;19.00;73.70;;;;;;5011465;28;20050;-68
2022/08/22 07:57:15;;;;;;;12.88;2.60;;;19.10;73.10;;;;;;5027761;28;20067;-68
2022/08/22 07:59:54;;;;;;;6.55;2.00;;;19.10;72.80;;;;;;5000056;28;20045;-67
2022/08/22 08:02:21;;;;;;;10.35;2.47;;;19.20;72.80;;;;;;4988963;28;20383;-68
2022/08/22 08:04:52;;;;;;;7.18;2.25;;;19.30;71.70;;;;;;4990709;28;20045;-68
2022/08/22 08:07:28;;;;;;;7.13;2.30;;;19.40;72.70;;;;;;5004828;28;20053;-67
2022/08/22 08:09:58;;;;;;;6.10;1.95;;;19.40;72.00;;;;;;5023082;28;20081;-68
2022/08/22 08:12:34;;;;;;;10.00;2.50;;;19.60;72.10;;;;;;4982919;28;20041;-67
2022/08/22 08:15:03;;;;;;;7.90;2.35;;;19.60;71.60;;;;;;5022442;28;20150;-67
2022/08/22 08:17:31;;;;;;;9.77;2.47;;;19.70;71.20;;;;;;5013705;28;20061;-67
2022/08/22 08:20:03;;;;;;;6.20;2.10;;;19.80;71.40;;;;;;5010949;28;20061;-66
2022/08/22 08:22:30;;;;;;;4.15;1.90;;;19.90;70.70;;;;;;4998460;28;20137;-68
2022/08/22 08:24:56;;;;;;;7.15;2.15;;;20.00;70.50;;;;;;5013838;28;20061;-67
2022/08/22 08:30:21;;;;;;;5.40;2.00;;;20.10;70.60;;;;;;5027137;28;20360;-67
2022/08/22 08:32:54;;;;;;;7.47;2.30;;;20.30;70.60;;;;;;5019053;28;20050;-67
2022/08/22 08:35:31;;;;;;;7.25;2.30;;;20.30;70.60;;;;;;5010371;28;20046;-67
2022/08/22 08:38:08;;;;;;;6.88;2.47;;;20.40;70.10;;;;;;4997183;28;20069;-68
2022/08/22 08:41:11;;;;;;;5.63;2.20;;;20.50;70.60;;;;;;5014481;28;20045;-68
2022/08/22 08:44:04;;;;;;;6.93;2.08;;;20.70;70.00;;;;;;5012599;28;20049;-70
2022/08/22 08:47:07;;;;;;;8.85;2.75;;;20.80;69.80;;;;;;5023955;28;20044;-68
2022/08/22 08:49:57;;;;;;;8.13;1.80;;;20.90;69.10;;;;;;5039847;28;20144;-68
2022/08/22 08:52:49;;;;;;;7.70;1.98;;;21.00;69.00;;;;;;5022672;28;20133;-67
2022/08/22 08:55:40;;;;;;;6.75;2.55;;;21.10;68.80;;;;;;5019877;28;20060;-67
2022/08/22 08:58:30;;;;;;;9.05;1.88;;;21.20;68.80;;;;;;5019918;28;20046;-67
2022/08/22 09:01:31;;;;;;;5.07;1.85;;;21.30;67.10;;;;;;5011536;28;20053;-67
2022/08/22 09:04:37;;;;;;;7.60;2.05;;;21.40;67.50;;;;;;5020226;28;20534;-68
2022/08/22 09:07:34;;;;;;;6.95;2.38;;;21.50;66.10;;;;;;5026674;28;20056;-68
2022/08/22 09:10:36;;;;;;;10.70;2.10;;;21.70;65.40;;;;;;5040643;28;20072;-68
2022/08/22 09:13:23;;;;;;;5.18;2.03;;;21.80;65.70;;;;;;5034244;28;20558;-68
2022/08/22 09:16:10;;;;;;;4.90;1.97;;;21.80;64.60;;;;;;5029703;28;20042;-68
2022/08/22 09:19:26;;;;;;;6.10;1.90;;;21.90;64.20;;;;;;5021818;28;20053;-68
2022/08/22 09:22:19;;;;;;;6.88;1.70;;;22.00;63.50;;;;;;5003524;28;20046;-67
2022/08/22 09:25:06;;;;;;;7.20;2.15;;;22.10;63.10;;;;;;5002923;28;20555;-70
2022/08/22 09:27:37;;;;;;;4.47;1.65;;;22.20;58.20;;;;;;5028298;28;20057;-72
2022/08/22 09:30:18;;;;;;;7.63;1.67;;;22.30;59.50;;;;;;5004206;28;20042;-71
2022/08/22 09:33:09;;;;;;;4.53;2.17;;;22.30;59.00;;;;;;5021418;28;20045;-70
2022/08/22 09:36:16;;;;;;;4.88;1.88;;;22.30;58.30;;;;;;5023748;28;20076;-70
2022/08/22 09:39:04;;;;;;;5.55;1.90;;;22.40;59.10;;;;;;5025361;28;20080;-72
2022/08/22 09:41:47;;;;;;;5.20;1.80;;;22.50;59.20;;;;;;5046698;28;20048;-71
2022/08/22 09:44:31;;;;;;;8.60;2.17;;;22.60;55.60;;;;;;5032370;28;20314;-71
2022/08/22 09:47:50;;;;;;;4.60;1.77;;;22.60;57.70;;;;;;5031263;28;20045;-71
2022/08/22 09:50:30;;;;;;;6.47;1.60;;;22.70;57.60;;;;;;5027507;28;20045;-70
2022/08/22 09:53:22;;;;;;;5.93;1.85;;;22.80;56.20;;;;;;5041736;28;20367;-70
2022/08/22 09:56:09;;;;;;;5.65;1.83;;;22.90;57.30;;;;;;5026394;28;20136;-71
2022/08/22 09:59:12;;;;;;;5.05;1.70;;;22.80;56.30;;;;;;5020596;28;20108;-71
2022/08/22 10:02:00;;;;;;;4.28;1.70;;;22.80;56.30;;;;;;5019177;28;20045;-70
2022/08/22 10:04:43;;;;;;;5.20;1.67;;;22.90;56.80;;;;;;5016942;28;20053;-71
2022/08/22 10:07:36;;;;;;;5.78;2.13;;;23.10;57.30;;;;;;5024287;28;20042;-69
2022/08/22 10:10:40;;;;;;;5.03;1.80;;;23.30;57.00;;;;;;5021869;28;20553;-70
2022/08/22 10:13:43;;;;;;;5.60;1.52;;;23.40;55.80;;;;;;5018398;28;20073;-71
2022/08/22 10:16:35;;;;;;;4.78;1.60;;;23.50;54.20;;;;;;5021029;28;20441;-70
2022/08/22 10:19:32;;;;;;;4.60;1.55;;;23.70;54.20;;;;;;5024512;28;20501;-70
2022/08/22 10:22:35;;;;;;;3.90;1.50;;;23.80;55.20;;;;;;5018389;28;20487;-70
2022/08/22 10:25:23;;;;;;;5.20;1.60;;;23.90;54.60;;;;;;5022549;28;20156;-73
2022/08/22 10:28:23;;;;;;;4.50;1.60;;;24.00;52.00;;;;;;5021875;28;20060;-71
2022/08/22 10:31:25;;;;;;;4.45;1.60;;;24.10;50.60;;;;;;5019236;28;20049;-71
2022/08/22 10:34:07;;;;;;;4.93;1.67;;;24.20;51.20;;;;;;5025230;28;20550;-70
2022/08/22 10:36:58;;;;;;;5.00;1.45;;;24.30;51.00;;;;;;5042510;28;20119;-71
2022/08/22 10:39:54;;;;;;;5.53;1.60;;;24.40;51.20;;;;;;5007062;28;20048;-71
2022/08/22 10:42:42;;;;;;;4.10;1.60;;;24.50;49.30;;;;;;5041918;28;20041;-72
2022/08/22 10:45:19;;;;;;;4.53;1.52;;;24.60;51.00;;;;;;5024384;28;20542;-70
2022/08/22 10:48:03;;;;;;;3.92;1.70;;;24.70;49.90;;;;;;5027907;28;20049;-71
2022/08/22 10:50:47;;;;;;;2.72;1.33;;;24.70;49.70;;;;;;5015853;28;20091;-71
2022/08/22 10:53:50;;;;;;;3.38;1.10;;;24.90;51.30;;;;;;5046090;28;20510;-71
2022/08/22 10:56:42;;;;;;;3.70;1.45;;;25.00;48.40;;;;;;5021743;28;20045;-72
2022/08/22 10:59:30;;;;;;;4.25;1.67;;;25.10;49.00;;;;;;5008211;28;20053;-71
2022/08/22 11:02:18;;;;;;;4.68;1.77;;;25.20;49.90;;;;;;5022360;28;20053;-71
2022/08/22 11:05:14;;;;;;;4.20;1.50;;;25.30;49.60;;;;;;5017190;28;20516;-71
2022/08/22 11:07:57;;;;;;;3.17;1.67;;;25.30;50.50;;;;;;5022353;28;20049;-71
2022/08/22 11:11:02;;;;;;;3.75;1.30;;;25.20;48.50;;;;;;5019257;28;20045;-72
2022/08/22 11:13:47;;;;;;;4.70;1.48;;;25.10;50.80;;;;;;5018353;28;20126;-73
2022/08/22 11:16:21;;;;;;;4.43;1.63;;;25.00;50.50;;;;;;4998880;28;20755;-73
2022/08/22 11:19:36;;;;;;;3.78;1.45;;;25.10;51.30;;;;;;5025080;28;20163;-73
2022/08/22 11:22:38;;;;;;;8.10;1.40;;;25.30;49.40;;;;;;4978065;28;20081;-75
2022/08/22 11:25:28;;;;;;;3.13;1.30;;;25.40;49.30;;;;;;5010280;28;20137;-73
2022/08/22 11:28:16;;;;;;;6.18;1.52;;;25.70;47.10;;;;;;5044724;28;20053;-74
2022/08/22 11:31:04;;;;;;;6.03;1.50;;;25.90;48.90;;;;;;5023023;28;20116;-73
2022/08/22 11:34:05;;;;;;;4.22;1.48;;;25.90;46.40;;;;;;5049593;28;20041;-71
2022/08/22 11:36:45;;;;;;;5.18;1.27;;;26.00;45.60;;;;;;5027966;28;20157;-72
2022/08/22 11:39:33;;;;;;;3.42;1.30;;;26.00;47.20;;;;;;5022203;28;20057;-74
2022/08/22 11:42:11;;;;;;;4.22;1.40;;;26.20;45.20;;;;;;5004893;28;20412;-74
2022/08/22 11:45:04;;;;;;;3.22;1.38;;;26.30;48.10;;;;;;5009840;28;20048;-73
2022/08/22 11:47:35;;;;;;;5.68;1.60;;;26.40;46.60;;;;;;5015652;28;20073;-72
2022/08/22 11:50:36;;;;;;;3.35;1.70;;;26.50;45.00;;;;;;5042877;28;20144;-74
2022/08/22 11:53:44;;;;;;;4.20;1.10;;;26.60;47.80;;;;;;5010840;28;20100;-74
2022/08/22 11:56:20;;;;;;;5.32;1.42;;;26.60;45.30;;;;;;5020590;28;20049;-74
2022/08/22 11:59:18;;;;;;;3.15;1.33;;;26.60;43.70;;;;;;5029923;28;20053;-73
2022/08/22 12:01:58;;;;;;;3.92;1.40;;;26.60;43.30;;;;;;5026846;28;20132;-73
2022/08/22 12:04:43;;;;;;;4.85;1.30;;;26.70;43.70;;;;;;5021723;28;20050;-74
2022/08/22 12:07:30;;;;;;;4.85;1.20;;;26.90;43.60;;;;;;5002917;28;20045;-72
2022/08/22 12:10:16;;;;;;;3.50;1.23;;;27.00;44.60;;;;;;5025055;28;20048;-71
2022/08/22 12:13:02;;;;;;;3.72;1.35;;;27.00;44.80;;;;;;5015458;28;20469;-71
2022/08/22 12:16:20;;;;;;;3.55;1.20;;;27.20;45.50;;;;;;5006792;28;20056;-73
2022/08/22 12:19:05;;;;;;;2.95;1.10;;;27.20;44.80;;;;;;5036227;28;20375;-73
2022/08/22 12:22:02;;;;;;;4.00;1.48;;;27.20;44.70;;;;;;5027329;28;20045;-73
2022/08/22 12:25:10;;;;;;;7.70;2.05;;;27.20;45.60;;;;;;5027804;28;20379;-73
2022/08/22 12:27:47;;;;;;;2.70;1.10;;;27.30;44.60;;;;;;4985896;28;20079;-74
2022/08/22 12:30:44;;;;;;;3.90;1.20;;;27.20;44.60;;;;;;5020926;28;20041;-73
2022/08/22 12:33:32;;;;;;;3.95;1.48;;;27.00;45.00;;;;;;5029153;28;20049;-75
2022/08/22 12:36:17;;;;;;;5.30;1.48;;;26.80;44.50;;;;;;5023190;28;20049;-68
2022/08/22 12:39:23;;;;;;;3.78;1.30;;;26.70;43.60;;;;;;5025104;28;20134;-68
2022/08/22 12:42:17;;;;;;;4.57;1.15;;;26.40;41.70;;;;;;5020778;28;20045;-68
2022/08/22 12:45:16;;;;;;;5.78;1.10;;;26.30;45.00;;;;;;5016815;28;20087;-68
2022/08/22 12:48:35;;;;;;;7.30;1.45;;;26.30;46.10;;;;;;5020772;28;20111;-69
2022/08/22 12:51:23;;;;;;;3.60;1.40;;;26.40;46.40;;;;;;5038693;28;20142;-68
2022/08/22 12:54:01;;;;;;;2.38;1.42;;;26.30;45.20;;;;;;5020992;28;20045;-68
2022/08/22 12:57:05;;;;;;;5.97;1.45;;;26.40;45.30;;;;;;5020445;28;20108;-68
2022/08/22 12:59:45;;;;;;;5.78;1.48;;;26.60;43.40;;;;;;5019688;28;20041;-68
2022/08/22 13:02:16;;;;;;;6.07;1.60;;;26.90;43.60;;;;;;5038515;28;20052;-68
2022/08/22 13:04:54;;;;;;;6.43;1.60;;;27.10;45.30;;;;;;5015150;28;20044;-68
2022/08/22 13:07:31;;;;;;;3.35;1.50;;;27.40;43.00;;;;;;4996228;28;20049;-72
2022/08/22 13:10:27;;;;;;;3.25;1.33;;;27.60;43.80;;;;;;5027703;28;20055;-70
2022/08/22 13:12:54;;;;;;;3.05;1.17;;;27.50;45.20;;;;;;5020199;28;20096;-68
2022/08/22 13:15:23;;;;;;;3.90;1.70;;;27.30;42.20;;;;;;5027198;28;20362;-68
2022/08/22 13:17:50;;;;;;;3.80;1.10;;;27.30;41.00;;;;;;5024474;28;20048;-69
2022/08/22 13:20:36;;;;;;;3.85;1.52;;;27.40;41.00;;;;;;5051524;28;20079;-69
2022/08/22 13:23:30;;;;;;;6.90;1.45;;;27.70;42.40;;;;;;5023997;28;20372;-70
2022/08/22 13:26:01;;;;;;;3.90;1.30;;;28.00;39.70;;;;;;5021334;28;20045;-68
2022/08/22 13:28:30;;;;;;;3.00;1.00;;;28.30;39.40;;;;;;5014321;28;20045;-69
2022/08/22 13:30:58;;;;;;;4.60;1.10;;;28.70;39.70;;;;;;5011959;28;20041;-70
2022/08/22 13:33:37;;;;;;;6.53;1.30;;;29.20;39.50;;;;;;5001359;28;20049;-68
2022/08/22 13:36:11;;;;;;;3.55;1.15;;;29.50;39.30;;;;;;5031546;28;20140;-69
2022/08/22 13:39:06;;;;;;;3.35;1.20;;;29.80;38.20;;;;;;5019516;28;20593;-68
2022/08/22 13:41:34;;;;;;;6.53;1.42;;;29.90;38.80;;;;;;5022021;28;20077;-69
2022/08/22 13:44:12;;;;;;;2.13;1.08;;;29.60;37.50;;;;;;5057495;28;20057;-70
2022/08/22 13:46:38;;;;;;;5.80;1.70;;;29.70;39.30;;;;;;5017074;28;20049;-68
2022/08/22 13:49:07;;;;;;;3.53;1.40;;;29.90;37.60;;;;;;5020772;28;20109;-69
2022/08/22 13:51:59;;;;;;;3.63;1.38;;;30.10;35.40;;;;;;5005638;28;20057;-69
2022/08/22 13:55:14;;;;;;;4.63;1.40;;;30.50;34.90;;;;;;5003275;28;20127;-70
2022/08/22 13:58:05;;;;;;;3.20;1.17;;;30.90;36.10;;;;;;4986804;28;20042;-70
2022/08/22 14:00:43;;;;;;;2.40;1.10;;;31.40;35.80;;;;;;5031968;28;20048;-69
2022/08/22 14:03:45;;;;;;;2.72;1.20;;;31.70;35.10;;;;;;4999509;28;20060;-71
2022/08/22 14:06:36;;;;;;;2.30;1.08;;;31.80;33.50;;;;;;5029190;28;20071;-72
2022/08/22 14:09:42;;;;;;;4.57;1.20;;;31.80;35.00;;;;;;5009132;28;20080;-71
2022/08/22 14:12:13;;;;;;;;;;;32.40;34.00;;;;;;5023014;28;20047;-70
2022/08/22 14:14:41;;;;;;;3.75;1.20;;;32.00;32.50;;;;;;5010210;28;19913;-71
2022/08/22 14:17:21;;;;;;;3.05;1.25;;;32.30;32.60;;;;;;5020618;28;20053;-71
2022/08/22 14:19:58;;;;;;;3.25;1.58;;;32.30;32.20;;;;;;4993174;28;20049;-71
2022/08/22 14:22:24;;;;;;;;;;;32.80;32.90;;;;;;5023548;28;20081;-72
2022/08/22 14:24:59;;;;;;;2.78;1.33;;;32.90;33.60;;;;;;5022770;28;19924;-74